sensor_id;sensor_type;location;lat;lon;timestamp;P1;durP1;ratioP1;P2;durP2;ratioP2
2123;SDS011;1068;52.460;13.528;2023-02-16T00:00:57;15.85;;;11.18;;
2123;SDS011;1068;52.460;13.528;2023-02-16T00:03:24;11.50;;;10.00;;
2123;SDS011;1068;52.460;13.528;2023-02-16T00:05:50;12.95;;;9.55;;
2123;SDS011;1068;52.460;13.528;2023-02-16T00:08:17;12.10;;;10.13;;
2123;SDS011;1068;52.460;13.528;2023-02-16T00:10:43;12.00;;;9.30;;
2123;SDS011;1068;52.460;13.528;2023-02-16T00:13:31;12.27;;;9.55;;
2123;SDS011;1068;52.460;13.528;2023-02-16T00:16:10;11.75;;;9.60;;
2123;SDS011;1068;52.460;13.528;2023-02-16T00:18:39;13.35;;;10.73;;
2123;SDS011;1068;52.460;13.528;2023-02-16T00:21:06;10.90;;;8.93;;
2123;SDS011;1068;52.460;13.528;2023-02-16T00:23:32;13.52;;;9.75;;
2123;SDS011;1068;52.460;13.528;2023-02-16T00:25:58;12.13;;;9.20;;
2123;SDS011;1068;52.460;13.528;2023-02-16T00:28:25;14.27;;;10.32;;
2123;SDS011;1068;52.460;13.528;2023-02-16T00:30:51;15.40;;;10.05;;
2123;SDS011;1068;52.460;13.528;2023-02-16T00:33:20;13.93;;;10.77;;
2123;SDS011;1068;52.460;13.528;2023-02-16T00:35:47;13.15;;;9.77;;
2123;SDS011;1068;52.460;13.528;2023-02-16T00:38:13;13.52;;;9.90;;
2123;SDS011;1068;52.460;13.528;2023-02-16T00:40:40;14.07;;;9.93;;
2123;SDS011;1068;52.460;13.528;2023-02-16T00:43:08;15.00;;;11.63;;
2123;SDS011;1068;52.460;13.528;2023-02-16T00:45:38;14.75;;;9.57;;
2123;SDS011;1068;52.460;13.528;2023-02-16T00:48:05;14.90;;;10.82;;
2123;SDS011;1068;52.460;13.528;2023-02-16T00:50:33;13.68;;;9.90;;
2123;SDS011;1068;52.460;13.528;2023-02-16T00:52:59;10.20;;;9.20;;
2123;SDS011;1068;52.460;13.528;2023-02-16T00:55:27;13.32;;;10.15;;
2123;SDS011;1068;52.460;13.528;2023-02-16T00:57:59;14.13;;;10.40;;
2123;SDS011;1068;52.460;13.528;2023-02-16T01:00:31;16.33;;;10.48;;
2123;SDS011;1068;52.460;13.528;2023-02-16T01:03:00;14.90;;;10.90;;
2123;SDS011;1068;52.460;13.528;2023-02-16T01:05:29;13.60;;;10.20;;
2123;SDS011;1068;52.460;13.528;2023-02-16T01:07:57;12.52;;;10.07;;
2123;SDS011;1068;52.460;13.528;2023-02-16T01:10:41;13.68;;;10.57;;
2123;SDS011;1068;52.460;13.528;2023-02-16T01:13:46;17.33;;;10.95;;
2123;SDS011;1068;52.460;13.528;2023-02-16T01:16:16;14.50;;;11.27;;
2123;SDS011;1068;52.460;13.528;2023-02-16T01:18:44;14.80;;;10.15;;
2123;SDS011;1068;52.460;13.528;2023-02-16T01:21:11;14.05;;;10.40;;
2123;SDS011;1068;52.460;13.528;2023-02-16T01:23:38;14.85;;;10.43;;
2123;SDS011;1068;52.460;13.528;2023-02-16T01:26:05;14.75;;;11.25;;
2123;SDS011;1068;52.460;13.528;2023-02-16T01:28:36;14.93;;;11.68;;
2123;SDS011;1068;52.460;13.528;2023-02-16T01:31:04;14.45;;;10.50;;
2123;SDS011;1068;52.460;13.528;2023-02-16T01:33:31;16.58;;;11.00;;
2123;SDS011;1068;52.460;13.528;2023-02-16T01:35:57;19.77;;;10.93;;
2123;SDS011;1068;52.460;13.528;2023-02-16T01:38:24;15.07;;;11.05;;
2123;SDS011;1068;52.460;13.528;2023-02-16T01:40:57;15.18;;;9.55;;
2123;SDS011;1068;52.460;13.528;2023-02-16T01:43:33;13.52;;;10.88;;
2123;SDS011;1068;52.460;13.528;2023-02-16T01:46:09;13.48;;;11.40;;
2123;SDS011;1068;52.460;13.528;2023-02-16T01:48:39;12.00;;;10.13;;
2123;SDS011;1068;52.460;13.528;2023-02-16T01:51:10;14.63;;;11.05;;
2123;SDS011;1068;52.460;13.528;2023-02-16T01:53:41;15.20;;;10.27;;
2123;SDS011;1068;52.460;13.528;2023-02-16T01:56:14;13.93;;;9.90;;
2123;SDS011;1068;52.460;13.528;2023-02-16T01:58:44;11.98;;;10.10;;
2123;SDS011;1068;52.460;13.528;2023-02-16T02:01:32;13.95;;;10.63;;
2123;SDS011;1068;52.460;13.528;2023-02-16T02:04:11;11.73;;;10.05;;
2123;SDS011;1068;52.460;13.528;2023-02-16T02:07:03;13.98;;;10.68;;
2123;SDS011;1068;52.460;13.528;2023-02-16T02:09:32;12.75;;;10.15;;
2123;SDS011;1068;52.460;13.528;2023-02-16T02:12:05;15.05;;;11.00;;
2123;SDS011;1068;52.460;13.528;2023-02-16T02:14:39;14.05;;;10.65;;
2123;SDS011;1068;52.460;13.528;2023-02-16T02:17:07;17.88;;;11.13;;
2123;SDS011;1068;52.460;13.528;2023-02-16T02:19:45;15.05;;;11.10;;
2123;SDS011;1068;52.460;13.528;2023-02-16T02:22:20;14.98;;;11.23;;
2123;SDS011;1068;52.460;13.528;2023-02-16T02:25:51;16.63;;;11.02;;
2123;SDS011;1068;52.460;13.528;2023-02-16T02:28:33;16.15;;;11.85;;
2123;SDS011;1068;52.460;13.528;2023-02-16T02:31:09;13.15;;;10.18;;
2123;SDS011;1068;52.460;13.528;2023-02-16T02:33:41;14.05;;;11.02;;
2123;SDS011;1068;52.460;13.528;2023-02-16T02:36:18;16.55;;;11.32;;
2123;SDS011;1068;52.460;13.528;2023-02-16T02:38:55;13.55;;;10.45;;
2123;SDS011;1068;52.460;13.528;2023-02-16T02:41:29;13.23;;;10.43;;
2123;SDS011;1068;52.460;13.528;2023-02-16T02:44:20;14.45;;;10.68;;
2123;SDS011;1068;52.460;13.528;2023-02-16T02:46:50;15.15;;;11.43;;
2123;SDS011;1068;52.460;13.528;2023-02-16T02:49:18;13.40;;;10.10;;
2123;SDS011;1068;52.460;13.528;2023-02-16T02:51:44;14.05;;;10.38;;
2123;SDS011;1068;52.460;13.528;2023-02-16T02:54:12;15.60;;;10.50;;
2123;SDS011;1068;52.460;13.528;2023-02-16T02:57:01;13.90;;;10.70;;
2123;SDS011;1068;52.460;13.528;2023-02-16T02:59:51;15.70;;;11.40;;
2123;SDS011;1068;52.460;13.528;2023-02-16T03:02:41;12.35;;;9.40;;
2123;SDS011;1068;52.460;13.528;2023-02-16T03:05:09;15.32;;;10.60;;
2123;SDS011;1068;52.460;13.528;2023-02-16T03:07:38;15.27;;;11.20;;
2123;SDS011;1068;52.460;13.528;2023-02-16T03:10:13;13.63;;;11.40;;
2123;SDS011;1068;52.460;13.528;2023-02-16T03:13:15;17.98;;;11.05;;
2123;SDS011;1068;52.460;13.528;2023-02-16T03:15:47;12.98;;;10.32;;
2123;SDS011;1068;52.460;13.528;2023-02-16T03:18:19;16.42;;;10.43;;
2123;SDS011;1068;52.460;13.528;2023-02-16T03:21:07;12.90;;;10.20;;
2123;SDS011;1068;52.460;13.528;2023-02-16T03:23:52;20.38;;;11.70;;
2123;SDS011;1068;52.460;13.528;2023-02-16T03:26:38;13.23;;;10.63;;
2123;SDS011;1068;52.460;13.528;2023-02-16T03:29:22;12.40;;;9.73;;
2123;SDS011;1068;52.460;13.528;2023-02-16T03:31:52;13.00;;;9.75;;
2123;SDS011;1068;52.460;13.528;2023-02-16T03:34:21;11.98;;;10.57;;
2123;SDS011;1068;52.460;13.528;2023-02-16T03:36:50;14.00;;;10.05;;
2123;SDS011;1068;52.460;13.528;2023-02-16T03:39:22;13.32;;;10.52;;
2123;SDS011;1068;52.460;13.528;2023-02-16T03:41:49;13.90;;;10.50;;
2123;SDS011;1068;52.460;13.528;2023-02-16T03:44:17;14.98;;;9.70;;
2123;SDS011;1068;52.460;13.528;2023-02-16T03:46:44;12.60;;;10.23;;
2123;SDS011;1068;52.460;13.528;2023-02-16T03:49:14;15.88;;;10.75;;
2123;SDS011;1068;52.460;13.528;2023-02-16T03:51:41;14.48;;;10.68;;
2123;SDS011;1068;52.460;13.528;2023-02-16T03:54:07;14.82;;;10.65;;
2123;SDS011;1068;52.460;13.528;2023-02-16T03:56:34;15.00;;;10.85;;
2123;SDS011;1068;52.460;13.528;2023-02-16T03:59:00;16.42;;;11.77;;
2123;SDS011;1068;52.460;13.528;2023-02-16T04:01:27;16.13;;;10.35;;
2123;SDS011;1068;52.460;13.528;2023-02-16T04:03:53;16.70;;;10.70;;
2123;SDS011;1068;52.460;13.528;2023-02-16T04:06:21;13.18;;;9.95;;
2123;SDS011;1068;52.460;13.528;2023-02-16T04:08:48;15.18;;;11.13;;
2123;SDS011;1068;52.460;13.528;2023-02-16T04:11:14;18.38;;;10.70;;
2123;SDS011;1068;52.460;13.528;2023-02-16T04:13:58;15.40;;;10.70;;
2123;SDS011;1068;52.460;13.528;2023-02-16T04:16:25;14.30;;;10.43;;
2123;SDS011;1068;52.460;13.528;2023-02-16T04:18:51;12.90;;;10.00;;
2123;SDS011;1068;52.460;13.528;2023-02-16T04:21:18;17.08;;;11.20;;
2123;SDS011;1068;52.460;13.528;2023-02-16T04:23:46;16.33;;;11.13;;
2123;SDS011;1068;52.460;13.528;2023-02-16T04:26:12;13.85;;;10.63;;
2123;SDS011;1068;52.460;13.528;2023-02-16T04:28:39;11.82;;;9.35;;
2123;SDS011;1068;52.460;13.528;2023-02-16T04:31:05;16.27;;;11.27;;
2123;SDS011;1068;52.460;13.528;2023-02-16T04:33:31;15.13;;;9.73;;
2123;SDS011;1068;52.460;13.528;2023-02-16T04:35:58;14.88;;;10.27;;
2123;SDS011;1068;52.460;13.528;2023-02-16T04:38:24;19.45;;;11.10;;
2123;SDS011;1068;52.460;13.528;2023-02-16T04:40:52;12.00;;;10.73;;
2123;SDS011;1068;52.460;13.528;2023-02-16T04:43:19;16.08;;;11.07;;
2123;SDS011;1068;52.460;13.528;2023-02-16T04:45:45;14.50;;;10.88;;
2123;SDS011;1068;52.460;13.528;2023-02-16T04:48:12;16.33;;;11.30;;
2123;SDS011;1068;52.460;13.528;2023-02-16T04:50:38;16.83;;;11.45;;
2123;SDS011;1068;52.460;13.528;2023-02-16T04:53:05;21.15;;;11.90;;
2123;SDS011;1068;52.460;13.528;2023-02-16T04:55:32;15.15;;;11.65;;
2123;SDS011;1068;52.460;13.528;2023-02-16T04:58:00;17.88;;;11.25;;
2123;SDS011;1068;52.460;13.528;2023-02-16T05:00:26;13.85;;;10.77;;
2123;SDS011;1068;52.460;13.528;2023-02-16T05:02:53;14.80;;;11.65;;
2123;SDS011;1068;52.460;13.528;2023-02-16T05:05:20;13.68;;;11.25;;
2123;SDS011;1068;52.460;13.528;2023-02-16T05:07:46;13.10;;;11.20;;
2123;SDS011;1068;52.460;13.528;2023-02-16T05:10:13;14.23;;;11.98;;
2123;SDS011;1068;52.460;13.528;2023-02-16T05:12:40;17.83;;;12.32;;
2123;SDS011;1068;52.460;13.528;2023-02-16T05:15:25;12.75;;;11.13;;
2123;SDS011;1068;52.460;13.528;2023-02-16T05:17:52;17.70;;;11.95;;
2123;SDS011;1068;52.460;13.528;2023-02-16T05:20:19;13.38;;;10.50;;
2123;SDS011;1068;52.460;13.528;2023-02-16T05:23:06;14.80;;;11.50;;
2123;SDS011;1068;52.460;13.528;2023-02-16T05:25:32;15.15;;;11.30;;
2123;SDS011;1068;52.460;13.528;2023-02-16T05:27:59;14.60;;;10.60;;
2123;SDS011;1068;52.460;13.528;2023-02-16T05:30:27;13.00;;;11.15;;
2123;SDS011;1068;52.460;13.528;2023-02-16T05:32:54;13.27;;;11.05;;
2123;SDS011;1068;52.460;13.528;2023-02-16T05:35:20;13.15;;;9.57;;
2123;SDS011;1068;52.460;13.528;2023-02-16T05:37:47;15.18;;;11.15;;
2123;SDS011;1068;52.460;13.528;2023-02-16T05:40:14;13.25;;;10.57;;
2123;SDS011;1068;52.460;13.528;2023-02-16T05:42:41;13.73;;;10.63;;
2123;SDS011;1068;52.460;13.528;2023-02-16T05:45:07;16.85;;;11.23;;
2123;SDS011;1068;52.460;13.528;2023-02-16T05:47:36;15.45;;;10.60;;
2123;SDS011;1068;52.460;13.528;2023-02-16T05:50:03;13.07;;;10.85;;
2123;SDS011;1068;52.460;13.528;2023-02-16T05:52:31;16.77;;;11.40;;
2123;SDS011;1068;52.460;13.528;2023-02-16T05:54:57;14.63;;;11.10;;
2123;SDS011;1068;52.460;13.528;2023-02-16T05:57:24;17.23;;;12.50;;
2123;SDS011;1068;52.460;13.528;2023-02-16T05:59:51;19.05;;;12.50;;
2123;SDS011;1068;52.460;13.528;2023-02-16T06:02:17;18.58;;;13.73;;
2123;SDS011;1068;52.460;13.528;2023-02-16T06:04:45;17.50;;;12.35;;
2123;SDS011;1068;52.460;13.528;2023-02-16T06:07:12;19.90;;;12.40;;
2123;SDS011;1068;52.460;13.528;2023-02-16T06:09:39;20.58;;;13.50;;
2123;SDS011;1068;52.460;13.528;2023-02-16T06:12:05;16.50;;;12.38;;
2123;SDS011;1068;52.460;13.528;2023-02-16T06:14:32;19.98;;;13.75;;
2123;SDS011;1068;52.460;13.528;2023-02-16T06:16:59;14.75;;;11.85;;
2123;SDS011;1068;52.460;13.528;2023-02-16T06:19:25;17.08;;;11.85;;
2123;SDS011;1068;52.460;13.528;2023-02-16T06:21:54;23.38;;;12.90;;
2123;SDS011;1068;52.460;13.528;2023-02-16T06:24:21;17.63;;;12.68;;
2123;SDS011;1068;52.460;13.528;2023-02-16T06:26:47;16.88;;;12.52;;
2123;SDS011;1068;52.460;13.528;2023-02-16T06:29:14;16.60;;;12.63;;
2123;SDS011;1068;52.460;13.528;2023-02-16T06:31:41;17.02;;;12.63;;
2123;SDS011;1068;52.460;13.528;2023-02-16T06:34:08;17.88;;;12.93;;
2123;SDS011;1068;52.460;13.528;2023-02-16T06:36:35;16.30;;;13.32;;
2123;SDS011;1068;52.460;13.528;2023-02-16T06:39:04;17.08;;;12.57;;
2123;SDS011;1068;52.460;13.528;2023-02-16T06:41:31;20.08;;;14.40;;
2123;SDS011;1068;52.460;13.528;2023-02-16T06:44:02;16.77;;;13.27;;
2123;SDS011;1068;52.460;13.528;2023-02-16T06:46:29;16.77;;;13.75;;
2123;SDS011;1068;52.460;13.528;2023-02-16T06:48:57;17.92;;;13.93;;
2123;SDS011;1068;52.460;13.528;2023-02-16T06:51:24;18.05;;;13.10;;
2123;SDS011;1068;52.460;13.528;2023-02-16T06:53:51;18.40;;;14.32;;
2123;SDS011;1068;52.460;13.528;2023-02-16T06:56:19;20.45;;;14.65;;
2123;SDS011;1068;52.460;13.528;2023-02-16T06:58:47;19.45;;;14.15;;
2123;SDS011;1068;52.460;13.528;2023-02-16T07:01:14;18.77;;;13.20;;
2123;SDS011;1068;52.460;13.528;2023-02-16T07:03:42;18.08;;;13.65;;
2123;SDS011;1068;52.460;13.528;2023-02-16T07:06:09;19.58;;;13.52;;
2123;SDS011;1068;52.460;13.528;2023-02-16T07:08:35;18.40;;;14.23;;
2123;SDS011;1068;52.460;13.528;2023-02-16T07:11:03;19.77;;;14.30;;
2123;SDS011;1068;52.460;13.528;2023-02-16T07:13:31;20.20;;;14.00;;
2123;SDS011;1068;52.460;13.528;2023-02-16T07:16:00;17.52;;;14.05;;
2123;SDS011;1068;52.460;13.528;2023-02-16T07:18:27;21.10;;;14.95;;
2123;SDS011;1068;52.460;13.528;2023-02-16T07:20:54;17.02;;;13.60;;
2123;SDS011;1068;52.460;13.528;2023-02-16T07:23:21;19.38;;;14.10;;
2123;SDS011;1068;52.460;13.528;2023-02-16T07:25:48;19.58;;;14.52;;
2123;SDS011;1068;52.460;13.528;2023-02-16T07:28:15;18.05;;;13.60;;
2123;SDS011;1068;52.460;13.528;2023-02-16T07:30:44;18.48;;;12.73;;
2123;SDS011;1068;52.460;13.528;2023-02-16T07:33:11;22.67;;;14.60;;
2123;SDS011;1068;52.460;13.528;2023-02-16T07:35:38;21.95;;;14.80;;
2123;SDS011;1068;52.460;13.528;2023-02-16T07:38:05;23.65;;;15.35;;
2123;SDS011;1068;52.460;13.528;2023-02-16T07:40:32;19.60;;;14.70;;
2123;SDS011;1068;52.460;13.528;2023-02-16T07:43:00;21.63;;;14.38;;
2123;SDS011;1068;52.460;13.528;2023-02-16T07:45:27;17.45;;;14.10;;
2123;SDS011;1068;52.460;13.528;2023-02-16T07:47:57;21.70;;;13.80;;
2123;SDS011;1068;52.460;13.528;2023-02-16T07:50:25;16.42;;;12.77;;
2123;SDS011;1068;52.460;13.528;2023-02-16T07:52:52;17.25;;;14.35;;
2123;SDS011;1068;52.460;13.528;2023-02-16T07:55:19;16.45;;;14.02;;
2123;SDS011;1068;52.460;13.528;2023-02-16T07:57:46;23.85;;;15.93;;
2123;SDS011;1068;52.460;13.528;2023-02-16T08:00:19;23.80;;;16.10;;
2123;SDS011;1068;52.460;13.528;2023-02-16T08:02:46;19.83;;;15.73;;
2123;SDS011;1068;52.460;13.528;2023-02-16T08:05:15;20.92;;;16.15;;
2123;SDS011;1068;52.460;13.528;2023-02-16T08:07:42;21.77;;;15.73;;
2123;SDS011;1068;52.460;13.528;2023-02-16T08:10:09;22.50;;;16.50;;
2123;SDS011;1068;52.460;13.528;2023-02-16T08:12:37;20.80;;;15.63;;
2123;SDS011;1068;52.460;13.528;2023-02-16T08:15:04;24.85;;;17.58;;
2123;SDS011;1068;52.460;13.528;2023-02-16T08:17:32;25.60;;;19.55;;
2123;SDS011;1068;52.460;13.528;2023-02-16T08:19:59;21.85;;;16.98;;
2123;SDS011;1068;52.460;13.528;2023-02-16T08:22:28;21.65;;;17.35;;
2123;SDS011;1068;52.460;13.528;2023-02-16T08:24:55;21.88;;;17.77;;
2123;SDS011;1068;52.460;13.528;2023-02-16T08:27:23;23.00;;;18.98;;
2123;SDS011;1068;52.460;13.528;2023-02-16T08:29:51;21.67;;;16.58;;
2123;SDS011;1068;52.460;13.528;2023-02-16T08:32:18;23.55;;;16.85;;
2123;SDS011;1068;52.460;13.528;2023-02-16T08:34:45;28.48;;;18.70;;
2123;SDS011;1068;52.460;13.528;2023-02-16T08:37:12;25.38;;;18.20;;
2123;SDS011;1068;52.460;13.528;2023-02-16T08:39:41;25.73;;;19.38;;
2123;SDS011;1068;52.460;13.528;2023-02-16T08:42:09;26.73;;;19.27;;
2123;SDS011;1068;52.460;13.528;2023-02-16T08:44:37;27.95;;;18.63;;
2123;SDS011;1068;52.460;13.528;2023-02-16T08:47:05;25.58;;;18.20;;
2123;SDS011;1068;52.460;13.528;2023-02-16T08:49:33;23.70;;;17.95;;
2123;SDS011;1068;52.460;13.528;2023-02-16T08:52:00;23.17;;;17.55;;
2123;SDS011;1068;52.460;13.528;2023-02-16T08:54:28;24.25;;;18.17;;
2123;SDS011;1068;52.460;13.528;2023-02-16T08:56:58;25.75;;;18.00;;
2123;SDS011;1068;52.460;13.528;2023-02-16T08:59:26;26.20;;;17.90;;
2123;SDS011;1068;52.460;13.528;2023-02-16T09:01:56;22.33;;;17.30;;
2123;SDS011;1068;52.460;13.528;2023-02-16T09:04:23;24.95;;;16.92;;
2123;SDS011;1068;52.460;13.528;2023-02-16T09:06:51;25.02;;;17.23;;
2123;SDS011;1068;52.460;13.528;2023-02-16T09:09:18;22.35;;;17.55;;
2123;SDS011;1068;52.460;13.528;2023-02-16T09:11:45;24.40;;;18.03;;
2123;SDS011;1068;52.460;13.528;2023-02-16T09:14:14;22.77;;;17.30;;
2123;SDS011;1068;52.460;13.528;2023-02-16T09:16:43;22.10;;;16.47;;
2123;SDS011;1068;52.460;13.528;2023-02-16T09:19:10;22.43;;;16.20;;
2123;SDS011;1068;52.460;13.528;2023-02-16T09:21:39;24.83;;;17.93;;
2123;SDS011;1068;52.460;13.528;2023-02-16T09:24:09;23.55;;;16.90;;
2123;SDS011;1068;52.460;13.528;2023-02-16T09:26:36;25.70;;;18.02;;
2123;SDS011;1068;52.460;13.528;2023-02-16T09:29:06;20.90;;;16.30;;
2123;SDS011;1068;52.460;13.528;2023-02-16T09:31:35;21.07;;;16.40;;
2123;SDS011;1068;52.460;13.528;2023-02-16T09:34:04;22.37;;;16.30;;
2123;SDS011;1068;52.460;13.528;2023-02-16T09:36:33;23.33;;;18.20;;
2123;SDS011;1068;52.460;13.528;2023-02-16T09:39:00;20.40;;;15.13;;
2123;SDS011;1068;52.460;13.528;2023-02-16T09:41:34;23.57;;;16.77;;
2123;SDS011;1068;52.460;13.528;2023-02-16T09:44:12;26.63;;;17.60;;
2123;SDS011;1068;52.460;13.528;2023-02-16T09:46:49;24.57;;;17.57;;
2123;SDS011;1068;52.460;13.528;2023-02-16T09:49:19;25.30;;;17.03;;
2123;SDS011;1068;52.460;13.528;2023-02-16T09:51:54;25.20;;;17.30;;
2123;SDS011;1068;52.460;13.528;2023-02-16T09:54:31;23.10;;;15.77;;
2123;SDS011;1068;52.460;13.528;2023-02-16T09:57:03;23.17;;;17.00;;
2123;SDS011;1068;52.460;13.528;2023-02-16T09:59:40;24.60;;;17.90;;
2123;SDS011;1068;52.460;13.528;2023-02-16T10:02:21;22.37;;;17.13;;
2123;SDS011;1068;52.460;13.528;2023-02-16T10:04:59;26.33;;;19.37;;
2123;SDS011;1068;52.460;13.528;2023-02-16T10:07:38;23.17;;;17.60;;
2123;SDS011;1068;52.460;13.528;2023-02-16T10:10:11;22.80;;;17.60;;
2123;SDS011;1068;52.460;13.528;2023-02-16T10:12:41;24.55;;;17.92;;
2123;SDS011;1068;52.460;13.528;2023-02-16T10:15:14;26.17;;;18.70;;
2123;SDS011;1068;52.460;13.528;2023-02-16T10:17:46;24.75;;;19.17;;
2123;SDS011;1068;52.460;13.528;2023-02-16T10:20:17;27.30;;;19.07;;
2123;SDS011;1068;52.460;13.528;2023-02-16T10:22:48;27.50;;;18.63;;
2123;SDS011;1068;52.460;13.528;2023-02-16T10:25:20;27.60;;;18.93;;
2123;SDS011;1068;52.460;13.528;2023-02-16T10:28:06;25.77;;;18.20;;
2123;SDS011;1068;52.460;13.528;2023-02-16T10:30:40;24.87;;;17.67;;
2123;SDS011;1068;52.460;13.528;2023-02-16T10:33:14;25.07;;;17.30;;
2123;SDS011;1068;52.460;13.528;2023-02-16T10:35:43;25.57;;;17.90;;
2123;SDS011;1068;52.460;13.528;2023-02-16T10:38:12;27.27;;;18.57;;
2123;SDS011;1068;52.460;13.528;2023-02-16T10:40:48;27.20;;;18.20;;
2123;SDS011;1068;52.460;13.528;2023-02-16T10:43:20;26.93;;;19.23;;
2123;SDS011;1068;52.460;13.528;2023-02-16T10:46:01;26.00;;;17.27;;
2123;SDS011;1068;52.460;13.528;2023-02-16T10:48:30;21.17;;;17.00;;
2123;SDS011;1068;52.460;13.528;2023-02-16T10:50:59;26.27;;;19.03;;
2123;SDS011;1068;52.460;13.528;2023-02-16T10:53:32;25.07;;;18.63;;
2123;SDS011;1068;52.460;13.528;2023-02-16T10:56:13;28.77;;;19.40;;
2123;SDS011;1068;52.460;13.528;2023-02-16T10:58:49;27.30;;;19.23;;
2123;SDS011;1068;52.460;13.528;2023-02-16T11:01:17;24.67;;;18.40;;
2123;SDS011;1068;52.460;13.528;2023-02-16T11:03:48;29.40;;;19.20;;
2123;SDS011;1068;52.460;13.528;2023-02-16T11:06:18;26.50;;;19.67;;
2123;SDS011;1068;52.460;13.528;2023-02-16T11:08:47;27.20;;;18.97;;
2123;SDS011;1068;52.460;13.528;2023-02-16T11:11:16;25.07;;;19.30;;
2123;SDS011;1068;52.460;13.528;2023-02-16T11:13:45;25.03;;;18.27;;
2123;SDS011;1068;52.460;13.528;2023-02-16T11:16:17;23.30;;;17.00;;
2123;SDS011;1068;52.460;13.528;2023-02-16T11:18:47;26.40;;;18.60;;
2123;SDS011;1068;52.460;13.528;2023-02-16T11:21:40;25.30;;;17.17;;
2123;SDS011;1068;52.460;13.528;2023-02-16T11:24:09;26.65;;;19.13;;
2123;SDS011;1068;52.460;13.528;2023-02-16T11:26:38;23.63;;;17.93;;
2123;SDS011;1068;52.460;13.528;2023-02-16T11:29:05;24.90;;;18.10;;
2123;SDS011;1068;52.460;13.528;2023-02-16T11:31:42;27.83;;;18.63;;
2123;SDS011;1068;52.460;13.528;2023-02-16T11:34:12;27.90;;;17.00;;
2123;SDS011;1068;52.460;13.528;2023-02-16T11:36:47;25.30;;;17.70;;
2123;SDS011;1068;52.460;13.528;2023-02-16T11:39:14;25.80;;;18.57;;
2123;SDS011;1068;52.460;13.528;2023-02-16T11:41:47;25.37;;;18.30;;
2123;SDS011;1068;52.460;13.528;2023-02-16T11:44:19;26.27;;;17.00;;
2123;SDS011;1068;52.460;13.528;2023-02-16T11:46:51;23.80;;;17.40;;
2123;SDS011;1068;52.460;13.528;2023-02-16T11:49:27;25.73;;;17.70;;
2123;SDS011;1068;52.460;13.528;2023-02-16T11:51:57;23.80;;;17.67;;
2123;SDS011;1068;52.460;13.528;2023-02-16T11:54:24;26.70;;;18.90;;
2123;SDS011;1068;52.460;13.528;2023-02-16T11:57:01;29.60;;;19.40;;
2123;SDS011;1068;52.460;13.528;2023-02-16T11:59:31;23.60;;;18.33;;
2123;SDS011;1068;52.460;13.528;2023-02-16T12:02:06;24.07;;;17.87;;
2123;SDS011;1068;52.460;13.528;2023-02-16T12:04:55;24.97;;;18.27;;
2123;SDS011;1068;52.460;13.528;2023-02-16T12:07:36;24.87;;;19.20;;
2123;SDS011;1068;52.460;13.528;2023-02-16T12:10:09;27.20;;;19.10;;
2123;SDS011;1068;52.460;13.528;2023-02-16T12:12:44;26.37;;;18.17;;
2123;SDS011;1068;52.460;13.528;2023-02-16T12:15:19;31.67;;;18.53;;
2123;SDS011;1068;52.460;13.528;2023-02-16T12:17:53;30.00;;;18.67;;
2123;SDS011;1068;52.460;13.528;2023-02-16T12:20:40;24.23;;;18.30;;
2123;SDS011;1068;52.460;13.528;2023-02-16T12:23:24;25.70;;;17.57;;
2123;SDS011;1068;52.460;13.528;2023-02-16T12:26:03;22.60;;;16.77;;
2123;SDS011;1068;52.460;13.528;2023-02-16T12:28:53;24.20;;;17.03;;
2123;SDS011;1068;52.460;13.528;2023-02-16T12:31:26;32.23;;;18.40;;
2123;SDS011;1068;52.460;13.528;2023-02-16T12:34:00;24.70;;;16.80;;
2123;SDS011;1068;52.460;13.528;2023-02-16T12:36:50;25.37;;;18.17;;
2123;SDS011;1068;52.460;13.528;2023-02-16T12:39:23;21.83;;;16.33;;
2123;SDS011;1068;52.460;13.528;2023-02-16T12:42:01;24.30;;;17.63;;
2123;SDS011;1068;52.460;13.528;2023-02-16T12:44:46;29.37;;;17.43;;
2123;SDS011;1068;52.460;13.528;2023-02-16T12:47:16;25.03;;;17.77;;
2123;SDS011;1068;52.460;13.528;2023-02-16T12:49:51;23.67;;;16.43;;
2123;SDS011;1068;52.460;13.528;2023-02-16T12:52:25;21.90;;;16.83;;
2123;SDS011;1068;52.460;13.528;2023-02-16T12:55:00;28.70;;;17.90;;
2123;SDS011;1068;52.460;13.528;2023-02-16T12:57:41;25.20;;;15.50;;
2123;SDS011;1068;52.460;13.528;2023-02-16T13:00:17;24.53;;;16.60;;
2123;SDS011;1068;52.460;13.528;2023-02-16T13:02:48;25.30;;;17.43;;
2123;SDS011;1068;52.460;13.528;2023-02-16T13:05:19;19.90;;;16.23;;
2123;SDS011;1068;52.460;13.528;2023-02-16T13:07:51;20.90;;;15.67;;
2123;SDS011;1068;52.460;13.528;2023-02-16T13:10:22;24.60;;;17.27;;
2123;SDS011;1068;52.460;13.528;2023-02-16T13:12:53;19.63;;;14.03;;
2123;SDS011;1068;52.460;13.528;2023-02-16T13:15:24;20.90;;;15.30;;
2123;SDS011;1068;52.460;13.528;2023-02-16T13:17:59;26.87;;;18.20;;
2123;SDS011;1068;52.460;13.528;2023-02-16T13:20:28;22.20;;;16.20;;
2123;SDS011;1068;52.460;13.528;2023-02-16T13:23:11;23.63;;;15.57;;
2123;SDS011;1068;52.460;13.528;2023-02-16T13:25:56;22.50;;;15.30;;
2123;SDS011;1068;52.460;13.528;2023-02-16T13:28:38;25.90;;;16.90;;
2123;SDS011;1068;52.460;13.528;2023-02-16T13:31:34;18.90;;;14.50;;
2123;SDS011;1068;52.460;13.528;2023-02-16T13:34:20;23.07;;;16.00;;
2123;SDS011;1068;52.460;13.528;2023-02-16T13:39:59;25.27;;;14.30;;
2123;SDS011;1068;52.460;13.528;2023-02-16T13:42:43;19.93;;;15.20;;
2123;SDS011;1068;52.460;13.528;2023-02-16T13:45:19;27.67;;;15.50;;
2123;SDS011;1068;52.460;13.528;2023-02-16T13:47:49;21.40;;;14.63;;
2123;SDS011;1068;52.460;13.528;2023-02-16T13:50:25;20.00;;;14.80;;
2123;SDS011;1068;52.460;13.528;2023-02-16T13:52:54;24.53;;;15.30;;
2123;SDS011;1068;52.460;13.528;2023-02-16T13:55:26;20.57;;;15.67;;
2123;SDS011;1068;52.460;13.528;2023-02-16T13:58:05;22.83;;;14.70;;
2123;SDS011;1068;52.460;13.528;2023-02-16T14:00:35;23.83;;;16.30;;
2123;SDS011;1068;52.460;13.528;2023-02-16T14:03:04;21.70;;;15.37;;
2123;SDS011;1068;52.460;13.528;2023-02-16T14:05:36;17.83;;;14.93;;
2123;SDS011;1068;52.460;13.528;2023-02-16T14:08:12;21.00;;;16.97;;
2123;SDS011;1068;52.460;13.528;2023-02-16T14:13:44;21.03;;;14.70;;
2123;SDS011;1068;52.460;13.528;2023-02-16T14:16:23;25.47;;;16.70;;
2123;SDS011;1068;52.460;13.528;2023-02-16T14:18:54;19.53;;;15.73;;
2123;SDS011;1068;52.460;13.528;2023-02-16T14:21:26;19.03;;;14.70;;
2123;SDS011;1068;52.460;13.528;2023-02-16T14:23:57;25.27;;;16.73;;
2123;SDS011;1068;52.460;13.528;2023-02-16T14:26:28;20.93;;;15.07;;
2123;SDS011;1068;52.460;13.528;2023-02-16T14:29:07;22.37;;;16.20;;
2123;SDS011;1068;52.460;13.528;2023-02-16T14:31:41;19.07;;;13.10;;
2123;SDS011;1068;52.460;13.528;2023-02-16T14:34:13;21.27;;;16.27;;
2123;SDS011;1068;52.460;13.528;2023-02-16T14:39:35;26.87;;;17.20;;
2123;SDS011;1068;52.460;13.528;2023-02-16T14:42:07;26.07;;;17.33;;
2123;SDS011;1068;52.460;13.528;2023-02-16T14:44:49;28.90;;;17.10;;
2123;SDS011;1068;52.460;13.528;2023-02-16T14:47:27;22.63;;;16.53;;
2123;SDS011;1068;52.460;13.528;2023-02-16T14:50:06;23.63;;;15.67;;
2123;SDS011;1068;52.460;13.528;2023-02-16T14:52:48;17.60;;;13.70;;
2123;SDS011;1068;52.460;13.528;2023-02-16T14:58:21;23.67;;;14.40;;
2123;SDS011;1068;52.460;13.528;2023-02-16T15:00:54;21.67;;;15.40;;
2123;SDS011;1068;52.460;13.528;2023-02-16T15:03:37;20.40;;;15.23;;
2123;SDS011;1068;52.460;13.528;2023-02-16T15:06:05;21.10;;;15.80;;
2123;SDS011;1068;52.460;13.528;2023-02-16T15:08:33;29.00;;;16.27;;
2123;SDS011;1068;52.460;13.528;2023-02-16T15:11:11;22.10;;;15.30;;
2123;SDS011;1068;52.460;13.528;2023-02-16T15:13:41;27.43;;;15.47;;